sensor_id;sensor_type;location;lat;lon;timestamp;P1;durP1;ratioP1;P2;durP2;ratioP2
21034;SDS011;10676;50.848;3.272;2023-09-19T00:01:41;24.40;;;15.70;;
21034;SDS011;10676;50.848;3.272;2023-09-19T00:04:09;22.23;;;15.25;;
21034;SDS011;10676;50.848;3.272;2023-09-19T00:06:45;19.20;;;15.60;;
21034;SDS011;10676;50.848;3.272;2023-09-19T00:09:12;18.50;;;15.07;;
21034;SDS011;10676;50.848;3.272;2023-09-19T00:11:41;19.00;;;15.48;;
21034;SDS011;10676;50.848;3.272;2023-09-19T00:14:06;21.63;;;15.70;;
21034;SDS011;10676;50.848;3.272;2023-09-19T00:16:35;20.95;;;15.43;;
21034;SDS011;10676;50.848;3.272;2023-09-19T00:19:01;16.92;;;15.32;;
21034;SDS011;10676;50.848;3.272;2023-09-19T00:21:33;19.17;;;15.15;;
21034;SDS011;10676;50.848;3.272;2023-09-19T00:24:08;18.02;;;15.05;;
21034;SDS011;10676;50.848;3.272;2023-09-19T00:26:34;20.38;;;14.93;;
21034;SDS011;10676;50.848;3.272;2023-09-19T00:29:00;23.02;;;15.43;;
21034;SDS011;10676;50.848;3.272;2023-09-19T00:31:29;21.08;;;15.20;;
21034;SDS011;10676;50.848;3.272;2023-09-19T00:33:55;23.10;;;15.30;;
21034;SDS011;10676;50.848;3.272;2023-09-19T00:38:58;19.60;;;15.05;;
21034;SDS011;10676;50.848;3.272;2023-09-19T00:41:24;26.02;;;15.02;;
21034;SDS011;10676;50.848;3.272;2023-09-19T00:43:50;19.92;;;15.30;;
21034;SDS011;10676;50.848;3.272;2023-09-19T00:46:19;19.52;;;15.20;;
21034;SDS011;10676;50.848;3.272;2023-09-19T00:48:44;18.15;;;14.80;;
21034;SDS011;10676;50.848;3.272;2023-09-19T00:51:11;24.20;;;15.10;;
21034;SDS011;10676;50.848;3.272;2023-09-19T00:53:39;23.00;;;15.10;;
21034;SDS011;10676;50.848;3.272;2023-09-19T00:56:07;21.30;;;14.98;;
21034;SDS011;10676;50.848;3.272;2023-09-19T00:58:33;23.58;;;15.55;;
21034;SDS011;10676;50.848;3.272;2023-09-19T01:03:32;16.55;;;14.70;;
21034;SDS011;10676;50.848;3.272;2023-09-19T01:06:05;16.55;;;14.50;;
21034;SDS011;10676;50.848;3.272;2023-09-19T01:08:32;20.70;;;14.68;;
21034;SDS011;10676;50.848;3.272;2023-09-19T01:11:01;19.35;;;14.23;;
21034;SDS011;10676;50.848;3.272;2023-09-19T01:13:55;16.23;;;14.40;;
21034;SDS011;10676;50.848;3.272;2023-09-19T01:21:57;18.40;;;13.93;;
21034;SDS011;10676;50.848;3.272;2023-09-19T01:30:26;16.95;;;14.27;;
21034;SDS011;10676;50.848;3.272;2023-09-19T01:32:55;19.80;;;14.07;;
21034;SDS011;10676;50.848;3.272;2023-09-19T01:35:30;22.23;;;14.23;;
21034;SDS011;10676;50.848;3.272;2023-09-19T01:37:57;20.70;;;14.55;;
21034;SDS011;10676;50.848;3.272;2023-09-19T01:40:24;16.65;;;14.05;;
21034;SDS011;10676;50.848;3.272;2023-09-19T01:48:49;24.83;;;14.38;;
21034;SDS011;10676;50.848;3.272;2023-09-19T01:51:32;20.27;;;14.50;;
21034;SDS011;10676;50.848;3.272;2023-09-19T01:54:09;21.60;;;15.60;;
21034;SDS011;10676;50.848;3.272;2023-09-19T01:56:42;20.02;;;14.85;;
21034;SDS011;10676;50.848;3.272;2023-09-19T01:59:13;20.85;;;14.75;;
21034;SDS011;10676;50.848;3.272;2023-09-19T02:01:46;18.30;;;14.88;;
21034;SDS011;10676;50.848;3.272;2023-09-19T02:04:24;19.95;;;14.73;;
21034;SDS011;10676;50.848;3.272;2023-09-19T02:06:50;19.95;;;15.10;;
21034;SDS011;10676;50.848;3.272;2023-09-19T02:09:16;17.65;;;14.73;;
21034;SDS011;10676;50.848;3.272;2023-09-19T02:14:31;18.80;;;15.43;;
21034;SDS011;10676;50.848;3.272;2023-09-19T02:19:32;17.60;;;15.65;;
21034;SDS011;10676;50.848;3.272;2023-09-19T02:21:58;19.42;;;15.88;;
21034;SDS011;10676;50.848;3.272;2023-09-19T02:24:26;18.38;;;15.88;;
21034;SDS011;10676;50.848;3.272;2023-09-19T02:26:52;21.25;;;18.98;;
21034;SDS011;10676;50.848;3.272;2023-09-19T02:29:17;25.80;;;20.50;;
21034;SDS011;10676;50.848;3.272;2023-09-19T02:31:43;28.85;;;21.58;;
21034;SDS011;10676;50.848;3.272;2023-09-19T02:34:11;24.60;;;21.05;;
21034;SDS011;10676;50.848;3.272;2023-09-19T02:36:37;27.02;;;21.20;;
21034;SDS011;10676;50.848;3.272;2023-09-19T02:39:02;23.27;;;20.83;;
21034;SDS011;10676;50.848;3.272;2023-09-19T02:41:30;26.65;;;21.35;;
21034;SDS011;10676;50.848;3.272;2023-09-19T02:43:58;26.83;;;21.80;;
21034;SDS011;10676;50.848;3.272;2023-09-19T02:46:24;28.02;;;22.05;;
21034;SDS011;10676;50.848;3.272;2023-09-19T02:48:50;29.75;;;22.27;;
21034;SDS011;10676;50.848;3.272;2023-09-19T02:51:15;29.38;;;22.50;;
21034;SDS011;10676;50.848;3.272;2023-09-19T02:53:41;29.88;;;22.08;;
21034;SDS011;10676;50.848;3.272;2023-09-19T02:58:38;32.00;;;22.75;;
21034;SDS011;10676;50.848;3.272;2023-09-19T03:01:08;26.75;;;21.98;;
21034;SDS011;10676;50.848;3.272;2023-09-19T03:03:36;28.80;;;21.88;;
21034;SDS011;10676;50.848;3.272;2023-09-19T03:06:04;26.02;;;21.15;;
21034;SDS011;10676;50.848;3.272;2023-09-19T03:08:34;37.28;;;21.15;;
21034;SDS011;10676;50.848;3.272;2023-09-19T03:11:05;32.28;;;22.45;;
21034;SDS011;10676;50.848;3.272;2023-09-19T03:13:34;25.58;;;20.90;;
21034;SDS011;10676;50.848;3.272;2023-09-19T03:16:01;23.73;;;21.20;;
21034;SDS011;10676;50.848;3.272;2023-09-19T03:18:36;23.20;;;18.98;;
21034;SDS011;10676;50.848;3.272;2023-09-19T03:21:02;24.88;;;20.33;;
21034;SDS011;10676;50.848;3.272;2023-09-19T03:23:30;27.23;;;19.60;;
21034;SDS011;10676;50.848;3.272;2023-09-19T03:25:56;25.83;;;18.55;;
21034;SDS011;10676;50.848;3.272;2023-09-19T03:28:29;24.70;;;18.30;;
21034;SDS011;10676;50.848;3.272;2023-09-19T03:30:59;27.88;;;18.65;;
21034;SDS011;10676;50.848;3.272;2023-09-19T03:33:29;21.02;;;18.58;;
21034;SDS011;10676;50.848;3.272;2023-09-19T03:36:03;29.50;;;19.10;;
21034;SDS011;10676;50.848;3.272;2023-09-19T03:38:32;26.13;;;18.90;;
21034;SDS011;10676;50.848;3.272;2023-09-19T03:41:02;24.23;;;19.00;;
21034;SDS011;10676;50.848;3.272;2023-09-19T03:43:28;28.17;;;18.60;;
21034;SDS011;10676;50.848;3.272;2023-09-19T03:45:53;26.85;;;19.20;;
21034;SDS011;10676;50.848;3.272;2023-09-19T03:48:21;23.33;;;18.67;;
21034;SDS011;10676;50.848;3.272;2023-09-19T03:50:47;22.70;;;19.23;;
21034;SDS011;10676;50.848;3.272;2023-09-19T03:53:21;25.05;;;18.98;;
21034;SDS011;10676;50.848;3.272;2023-09-19T03:55:47;26.75;;;18.95;;
21034;SDS011;10676;50.848;3.272;2023-09-19T03:58:19;27.60;;;19.55;;
21034;SDS011;10676;50.848;3.272;2023-09-19T04:00:45;25.75;;;19.45;;
21034;SDS011;10676;50.848;3.272;2023-09-19T04:03:11;20.73;;;18.60;;
21034;SDS011;10676;50.848;3.272;2023-09-19T04:05:44;31.15;;;19.70;;
21034;SDS011;10676;50.848;3.272;2023-09-19T04:08:11;23.65;;;18.40;;
21034;SDS011;10676;50.848;3.272;2023-09-19T04:10:37;25.67;;;19.50;;
21034;SDS011;10676;50.848;3.272;2023-09-19T04:13:03;26.10;;;20.45;;
21034;SDS011;10676;50.848;3.272;2023-09-19T04:15:29;24.75;;;20.15;;
21034;SDS011;10676;50.848;3.272;2023-09-19T04:17:54;26.25;;;20.02;;
21034;SDS011;10676;50.848;3.272;2023-09-19T04:20:20;26.00;;;19.67;;
21034;SDS011;10676;50.848;3.272;2023-09-19T04:22:48;25.10;;;19.33;;
21034;SDS011;10676;50.848;3.272;2023-09-19T04:25:14;26.17;;;19.63;;
21034;SDS011;10676;50.848;3.272;2023-09-19T04:27:39;22.25;;;19.67;;
21034;SDS011;10676;50.848;3.272;2023-09-19T04:30:07;23.42;;;18.38;;
21034;SDS011;10676;50.848;3.272;2023-09-19T04:32:38;24.20;;;18.88;;
21034;SDS011;10676;50.848;3.272;2023-09-19T04:35:07;29.42;;;18.80;;
21034;SDS011;10676;50.848;3.272;2023-09-19T04:37:44;25.05;;;18.95;;
21034;SDS011;10676;50.848;3.272;2023-09-19T04:40:10;25.42;;;19.50;;
21034;SDS011;10676;50.848;3.272;2023-09-19T04:42:38;24.08;;;19.42;;
21034;SDS011;10676;50.848;3.272;2023-09-19T04:45:05;20.83;;;18.77;;
21034;SDS011;10676;50.848;3.272;2023-09-19T04:47:32;21.85;;;19.38;;
21034;SDS011;10676;50.848;3.272;2023-09-19T04:49:58;23.38;;;18.92;;
21034;SDS011;10676;50.848;3.272;2023-09-19T04:52:24;22.60;;;18.70;;
21034;SDS011;10676;50.848;3.272;2023-09-19T04:57:42;22.40;;;17.63;;
21034;SDS011;10676;50.848;3.272;2023-09-19T05:00:10;24.42;;;18.27;;
21034;SDS011;10676;50.848;3.272;2023-09-19T05:02:52;28.08;;;18.55;;
21034;SDS011;10676;50.848;3.272;2023-09-19T05:05:21;27.13;;;17.60;;
21034;SDS011;10676;50.848;3.272;2023-09-19T05:07:48;25.35;;;17.95;;
21034;SDS011;10676;50.848;3.272;2023-09-19T05:10:14;21.92;;;18.20;;
21034;SDS011;10676;50.848;3.272;2023-09-19T05:12:46;24.55;;;18.20;;
21034;SDS011;10676;50.848;3.272;2023-09-19T05:15:13;19.17;;;17.20;;
21034;SDS011;10676;50.848;3.272;2023-09-19T05:17:40;23.50;;;18.45;;
21034;SDS011;10676;50.848;3.272;2023-09-19T05:20:06;24.10;;;17.83;;
21034;SDS011;10676;50.848;3.272;2023-09-19T05:23:12;24.50;;;17.95;;
21034;SDS011;10676;50.848;3.272;2023-09-19T05:25:39;23.25;;;17.63;;
21034;SDS011;10676;50.848;3.272;2023-09-19T05:28:05;31.27;;;17.98;;
21034;SDS011;10676;50.848;3.272;2023-09-19T05:30:33;24.73;;;18.02;;
21034;SDS011;10676;50.848;3.272;2023-09-19T05:33:03;25.73;;;18.45;;
21034;SDS011;10676;50.848;3.272;2023-09-19T05:35:31;23.25;;;18.10;;
21034;SDS011;10676;50.848;3.272;2023-09-19T05:37:57;23.08;;;17.27;;
21034;SDS011;10676;50.848;3.272;2023-09-19T05:40:24;19.27;;;17.17;;
21034;SDS011;10676;50.848;3.272;2023-09-19T05:42:50;29.10;;;17.70;;
21034;SDS011;10676;50.848;3.272;2023-09-19T05:45:16;22.52;;;16.80;;
21034;SDS011;10676;50.848;3.272;2023-09-19T05:47:50;19.13;;;16.42;;
21034;SDS011;10676;50.848;3.272;2023-09-19T05:50:20;20.58;;;17.67;;
21034;SDS011;10676;50.848;3.272;2023-09-19T05:52:53;19.88;;;17.88;;
21034;SDS011;10676;50.848;3.272;2023-09-19T05:55:20;21.67;;;17.67;;
21034;SDS011;10676;50.848;3.272;2023-09-19T05:57:49;21.83;;;18.60;;
21034;SDS011;10676;50.848;3.272;2023-09-19T06:00:16;21.75;;;19.33;;
21034;SDS011;10676;50.848;3.272;2023-09-19T06:02:55;22.83;;;19.48;;
21034;SDS011;10676;50.848;3.272;2023-09-19T06:05:23;27.80;;;19.20;;
21034;SDS011;10676;50.848;3.272;2023-09-19T06:07:49;23.88;;;19.05;;
21034;SDS011;10676;50.848;3.272;2023-09-19T06:10:17;23.70;;;19.05;;
21034;SDS011;10676;50.848;3.272;2023-09-19T06:12:43;22.75;;;19.00;;
21034;SDS011;10676;50.848;3.272;2023-09-19T06:15:12;30.45;;;19.40;;
21034;SDS011;10676;50.848;3.272;2023-09-19T06:17:41;20.92;;;18.75;;
21034;SDS011;10676;50.848;3.272;2023-09-19T06:20:20;24.40;;;18.42;;
21034;SDS011;10676;50.848;3.272;2023-09-19T06:22:47;21.10;;;18.25;;
21034;SDS011;10676;50.848;3.272;2023-09-19T06:25:14;21.40;;;18.20;;
21034;SDS011;10676;50.848;3.272;2023-09-19T06:27:51;21.88;;;17.95;;
21034;SDS011;10676;50.848;3.272;2023-09-19T06:30:19;20.55;;;18.20;;
21034;SDS011;10676;50.848;3.272;2023-09-19T06:32:46;21.17;;;18.08;;
21034;SDS011;10676;50.848;3.272;2023-09-19T06:35:12;22.10;;;18.05;;
21034;SDS011;10676;50.848;3.272;2023-09-19T06:37:39;18.88;;;17.02;;
21034;SDS011;10676;50.848;3.272;2023-09-19T06:40:07;19.42;;;17.40;;
21034;SDS011;10676;50.848;3.272;2023-09-19T06:42:38;19.75;;;17.27;;
21034;SDS011;10676;50.848;3.272;2023-09-19T06:45:16;18.80;;;16.90;;
21034;SDS011;10676;50.848;3.272;2023-09-19T06:47:48;19.33;;;17.33;;
21034;SDS011;10676;50.848;3.272;2023-09-19T06:50:15;21.75;;;17.08;;
21034;SDS011;10676;50.848;3.272;2023-09-19T06:52:43;18.65;;;16.83;;
21034;SDS011;10676;50.848;3.272;2023-09-19T06:55:10;20.88;;;16.90;;
21034;SDS011;10676;50.848;3.272;2023-09-19T06:57:38;20.05;;;16.08;;
21034;SDS011;10676;50.848;3.272;2023-09-19T07:00:06;18.83;;;16.42;;
21034;SDS011;10676;50.848;3.272;2023-09-19T07:03:02;18.20;;;16.25;;
21034;SDS011;10676;50.848;3.272;2023-09-19T07:05:30;17.27;;;15.45;;
21034;SDS011;10676;50.848;3.272;2023-09-19T07:07:56;17.35;;;15.38;;
21034;SDS011;10676;50.848;3.272;2023-09-19T07:10:26;17.33;;;15.10;;
21034;SDS011;10676;50.848;3.272;2023-09-19T07:13:00;18.17;;;15.55;;
21034;SDS011;10676;50.848;3.272;2023-09-19T07:15:28;17.27;;;14.82;;
21034;SDS011;10676;50.848;3.272;2023-09-19T07:17:56;18.80;;;15.30;;
21034;SDS011;10676;50.848;3.272;2023-09-19T07:20:22;16.85;;;14.48;;
21034;SDS011;10676;50.848;3.272;2023-09-19T07:22:51;17.15;;;14.80;;
21034;SDS011;10676;50.848;3.272;2023-09-19T07:25:19;22.58;;;14.88;;
21034;SDS011;10676;50.848;3.272;2023-09-19T07:27:45;16.58;;;14.88;;
21034;SDS011;10676;50.848;3.272;2023-09-19T07:30:11;15.63;;;13.98;;
21034;SDS011;10676;50.848;3.272;2023-09-19T07:32:37;18.50;;;14.05;;
21034;SDS011;10676;50.848;3.272;2023-09-19T07:35:04;15.98;;;14.27;;
21034;SDS011;10676;50.848;3.272;2023-09-19T07:37:33;17.73;;;13.23;;
21034;SDS011;10676;50.848;3.272;2023-09-19T07:39:59;17.50;;;14.00;;
21034;SDS011;10676;50.848;3.272;2023-09-19T07:42:26;16.35;;;13.82;;
21034;SDS011;10676;50.848;3.272;2023-09-19T07:44:52;19.48;;;13.77;;
21034;SDS011;10676;50.848;3.272;2023-09-19T07:47:19;14.90;;;13.40;;
21034;SDS011;10676;50.848;3.272;2023-09-19T07:49:49;16.35;;;13.27;;
21034;SDS011;10676;50.848;3.272;2023-09-19T07:52:15;21.58;;;13.55;;
21034;SDS011;10676;50.848;3.272;2023-09-19T07:54:41;14.27;;;12.80;;
21034;SDS011;10676;50.848;3.272;2023-09-19T07:57:09;14.50;;;13.07;;
21034;SDS011;10676;50.848;3.272;2023-09-19T07:59:36;15.48;;;12.82;;
21034;SDS011;10676;50.848;3.272;2023-09-19T08:02:03;15.38;;;13.25;;
21034;SDS011;10676;50.848;3.272;2023-09-19T08:04:29;18.50;;;12.98;;
21034;SDS011;10676;50.848;3.272;2023-09-19T08:06:58;17.30;;;12.80;;
21034;SDS011;10676;50.848;3.272;2023-09-19T08:09:28;15.15;;;12.55;;
21034;SDS011;10676;50.848;3.272;2023-09-19T08:11:58;14.52;;;12.70;;
21034;SDS011;10676;50.848;3.272;2023-09-19T08:14:27;17.83;;;12.88;;
21034;SDS011;10676;50.848;3.272;2023-09-19T08:16:56;19.77;;;12.45;;
21034;SDS011;10676;50.848;3.272;2023-09-19T08:19:23;13.65;;;12.10;;
21034;SDS011;10676;50.848;3.272;2023-09-19T08:21:55;13.95;;;12.32;;
21034;SDS011;10676;50.848;3.272;2023-09-19T08:24:23;15.68;;;12.43;;
21034;SDS011;10676;50.848;3.272;2023-09-19T08:26:52;17.10;;;12.20;;
21034;SDS011;10676;50.848;3.272;2023-09-19T08:29:19;17.35;;;12.25;;
21034;SDS011;10676;50.848;3.272;2023-09-19T08:31:45;16.38;;;12.38;;
21034;SDS011;10676;50.848;3.272;2023-09-19T08:34:14;14.68;;;12.10;;
21034;SDS011;10676;50.848;3.272;2023-09-19T08:36:40;18.23;;;12.02;;
21034;SDS011;10676;50.848;3.272;2023-09-19T08:39:08;16.75;;;11.57;;
21034;SDS011;10676;50.848;3.272;2023-09-19T08:41:34;14.38;;;11.95;;
21034;SDS011;10676;50.848;3.272;2023-09-19T08:43:59;12.95;;;11.55;;
21034;SDS011;10676;50.848;3.272;2023-09-19T08:46:29;13.25;;;11.55;;
21034;SDS011;10676;50.848;3.272;2023-09-19T08:49:03;13.27;;;11.20;;
21034;SDS011;10676;50.848;3.272;2023-09-19T08:51:42;13.32;;;11.15;;
21034;SDS011;10676;50.848;3.272;2023-09-19T08:54:12;13.30;;;11.30;;
21034;SDS011;10676;50.848;3.272;2023-09-19T08:56:43;12.45;;;11.13;;
21034;SDS011;10676;50.848;3.272;2023-09-19T08:59:12;15.38;;;10.82;;
21034;SDS011;10676;50.848;3.272;2023-09-19T09:01:38;15.55;;;10.63;;
21034;SDS011;10676;50.848;3.272;2023-09-19T09:04:07;11.75;;;10.50;;
21034;SDS011;10676;50.848;3.272;2023-09-19T09:06:38;14.50;;;10.40;;
21034;SDS011;10676;50.848;3.272;2023-09-19T09:09:05;16.00;;;10.43;;
21034;SDS011;10676;50.848;3.272;2023-09-19T09:11:32;14.00;;;10.60;;
21034;SDS011;10676;50.848;3.272;2023-09-19T09:13:58;11.65;;;10.23;;
21034;SDS011;10676;50.848;3.272;2023-09-19T09:16:25;12.48;;;10.15;;
21034;SDS011;10676;50.848;3.272;2023-09-19T09:18:50;11.68;;;10.00;;
21034;SDS011;10676;50.848;3.272;2023-09-19T09:21:19;13.23;;;10.02;;
21034;SDS011;10676;50.848;3.272;2023-09-19T09:23:47;13.20;;;10.35;;
21034;SDS011;10676;50.848;3.272;2023-09-19T09:26:14;11.32;;;10.27;;
21034;SDS011;10676;50.848;3.272;2023-09-19T09:28:44;11.85;;;10.80;;
21034;SDS011;10676;50.848;3.272;2023-09-19T09:31:23;11.65;;;10.40;;
21034;SDS011;10676;50.848;3.272;2023-09-19T09:33:53;10.70;;;9.80;;
21034;SDS011;10676;50.848;3.272;2023-09-19T09:36:33;12.68;;;9.98;;
21034;SDS011;10676;50.848;3.272;2023-09-19T09:39:00;11.15;;;10.15;;
21034;SDS011;10676;50.848;3.272;2023-09-19T09:41:40;11.38;;;10.38;;
21034;SDS011;10676;50.848;3.272;2023-09-19T09:44:15;11.52;;;10.18;;
21034;SDS011;10676;50.848;3.272;2023-09-19T09:46:47;10.57;;;9.85;;
21034;SDS011;10676;50.848;3.272;2023-09-19T09:49:39;10.73;;;9.95;;
21034;SDS011;10676;50.848;3.272;2023-09-19T09:52:06;10.65;;;9.93;;
21034;SDS011;10676;50.848;3.272;2023-09-19T09:54:58;11.80;;;10.25;;
21034;SDS011;10676;50.848;3.272;2023-09-19T09:57:25;11.43;;;10.55;;
21034;SDS011;10676;50.848;3.272;2023-09-19T10:00:00;11.55;;;10.70;;
21034;SDS011;10676;50.848;3.272;2023-09-19T10:02:39;11.85;;;10.70;;
21034;SDS011;10676;50.848;3.272;2023-09-19T10:05:17;11.20;;;10.20;;
21034;SDS011;10676;50.848;3.272;2023-09-19T10:07:52;10.82;;;9.93;;
21034;SDS011;10676;50.848;3.272;2023-09-19T10:10:35;11.40;;;10.27;;
21034;SDS011;10676;50.848;3.272;2023-09-19T10:13:16;11.52;;;10.43;;
21034;SDS011;10676;50.848;3.272;2023-09-19T10:15:50;10.85;;;9.88;;
21034;SDS011;10676;50.848;3.272;2023-09-19T10:18:22;10.75;;;9.98;;
21034;SDS011;10676;50.848;3.272;2023-09-19T10:20:49;11.63;;;10.40;;
21034;SDS011;10676;50.848;3.272;2023-09-19T10:23:16;10.88;;;9.88;;
21034;SDS011;10676;50.848;3.272;2023-09-19T10:25:47;11.73;;;10.55;;
21034;SDS011;10676;50.848;3.272;2023-09-19T10:28:15;10.60;;;9.82;;
21034;SDS011;10676;50.848;3.272;2023-09-19T10:30:45;9.73;;;9.02;;
21034;SDS011;10676;50.848;3.272;2023-09-19T10:33:14;10.70;;;9.80;;
21034;SDS011;10676;50.848;3.272;2023-09-19T10:35:43;10.52;;;9.63;;
21034;SDS011;10676;50.848;3.272;2023-09-19T10:38:11;10.70;;;9.65;;
21034;SDS011;10676;50.848;3.272;2023-09-19T10:40:44;10.00;;;9.20;;
21034;SDS011;10676;50.848;3.272;2023-09-19T10:43:15;10.38;;;9.57;;
21034;SDS011;10676;50.848;3.272;2023-09-19T10:45:48;11.00;;;9.90;;
21034;SDS011;10676;50.848;3.272;2023-09-19T10:48:17;10.77;;;9.80;;
21034;SDS011;10676;50.848;3.272;2023-09-19T10:53:24;10.77;;;9.73;;
21034;SDS011;10676;50.848;3.272;2023-09-19T10:55:54;10.75;;;9.57;;
21034;SDS011;10676;50.848;3.272;2023-09-19T10:58:28;10.45;;;9.57;;
21034;SDS011;10676;50.848;3.272;2023-09-19T11:01:02;10.05;;;9.25;;
21034;SDS011;10676;50.848;3.272;2023-09-19T11:03:31;9.75;;;9.07;;
21034;SDS011;10676;50.848;3.272;2023-09-19T11:06:05;10.48;;;9.50;;
21034;SDS011;10676;50.848;3.272;2023-09-19T11:09:17;9.95;;;9.25;;
21034;SDS011;10676;50.848;3.272;2023-09-19T11:11:44;9.50;;;8.90;;
21034;SDS011;10676;50.848;3.272;2023-09-19T11:30:36;10.32;;;9.55;;
21034;SDS011;10676;50.848;3.272;2023-09-19T11:33:15;10.48;;;9.40;;
21034;SDS011;10676;50.848;3.272;2023-09-19T11:36:07;9.95;;;9.10;;
21034;SDS011;10676;50.848;3.272;2023-09-19T11:46:24;10.68;;;9.68;;
21034;SDS011;10676;50.848;3.272;2023-09-19T11:48:51;12.15;;;10.05;;
21034;SDS011;10676;50.848;3.272;2023-09-19T11:53:56;10.90;;;10.00;;
21034;SDS011;10676;50.848;3.272;2023-09-19T11:56:26;10.93;;;10.00;;
21034;SDS011;10676;50.848;3.272;2023-09-19T11:58:56;10.80;;;10.05;;
21034;SDS011;10676;50.848;3.272;2023-09-19T12:01:31;11.38;;;10.52;;
21034;SDS011;10676;50.848;3.272;2023-09-19T12:04:00;11.43;;;10.30;;
21034;SDS011;10676;50.848;3.272;2023-09-19T12:06:28;10.70;;;10.00;;
21034;SDS011;10676;50.848;3.272;2023-09-19T12:08:55;11.52;;;10.43;;
21034;SDS011;10676;50.848;3.272;2023-09-19T12:11:27;12.07;;;10.75;;
21034;SDS011;10676;50.848;3.272;2023-09-19T12:13:55;11.05;;;10.10;;
21034;SDS011;10676;50.848;3.272;2023-09-19T12:16:25;11.48;;;10.50;;
21034;SDS011;10676;50.848;3.272;2023-09-19T12:18:55;11.00;;;10.30;;
21034;SDS011;10676;50.848;3.272;2023-09-19T12:21:26;11.25;;;10.25;;
21034;SDS011;10676;50.848;3.272;2023-09-19T12:24:04;10.98;;;9.98;;
21034;SDS011;10676;50.848;3.272;2023-09-19T12:26:40;12.32;;;9.70;;
21034;SDS011;10676;50.848;3.272;2023-09-19T12:29:19;11.10;;;10.30;;
21034;SDS011;10676;50.848;3.272;2023-09-19T12:34:24;10.75;;;9.70;;
21034;SDS011;10676;50.848;3.272;2023-09-19T12:37:06;10.35;;;9.48;;
21034;SDS011;10676;50.848;3.272;2023-09-19T12:39:37;10.38;;;9.57;;
21034;SDS011;10676;50.848;3.272;2023-09-19T12:42:03;10.57;;;9.73;;
21034;SDS011;10676;50.848;3.272;2023-09-19T12:44:33;10.45;;;9.55;;
21034;SDS011;10676;50.848;3.272;2023-09-19T12:47:07;10.50;;;9.65;;
21034;SDS011;10676;50.848;3.272;2023-09-19T12:49:34;11.27;;;10.20;;
21034;SDS011;10676;50.848;3.272;2023-09-19T12:52:00;11.52;;;9.75;;
21034;SDS011;10676;50.848;3.272;2023-09-19T12:54:37;11.43;;;10.40;;
21034;SDS011;10676;50.848;3.272;2023-09-19T12:57:04;10.98;;;9.80;;
21034;SDS011;10676;50.848;3.272;2023-09-19T12:59:30;10.40;;;9.50;;
21034;SDS011;10676;50.848;3.272;2023-09-19T13:02:03;10.48;;;9.55;;
21034;SDS011;10676;50.848;3.272;2023-09-19T13:04:32;12.10;;;10.05;;
21034;SDS011;10676;50.848;3.272;2023-09-19T13:06:59;10.40;;;9.50;;
21034;SDS011;10676;50.848;3.272;2023-09-19T13:09:26;10.38;;;9.40;;
21034;SDS011;10676;50.848;3.272;2023-09-19T13:12:03;10.00;;;9.10;;
21034;SDS011;10676;50.848;3.272;2023-09-19T13:14:31;10.07;;;9.15;;
21034;SDS011;10676;50.848;3.272;2023-09-19T13:19:50;12.02;;;10.40;;
21034;SDS011;10676;50.848;3.272;2023-09-19T13:22:38;10.48;;;9.60;;
21034;SDS011;10676;50.848;3.272;2023-09-19T13:25:08;10.15;;;9.40;;
21034;SDS011;10676;50.848;3.272;2023-09-19T13:27:39;10.35;;;9.35;;
21034;SDS011;10676;50.848;3.272;2023-09-19T13:30:06;10.13;;;9.35;;
21034;SDS011;10676;50.848;3.272;2023-09-19T13:32:32;11.10;;;10.20;;
21034;SDS011;10676;50.848;3.272;2023-09-19T13:34:58;10.13;;;9.40;;
21034;SDS011;10676;50.848;3.272;2023-09-19T13:37:24;10.57;;;9.68;;
21034;SDS011;10676;50.848;3.272;2023-09-19T13:39:51;10.70;;;9.73;;
21034;SDS011;10676;50.848;3.272;2023-09-19T13:42:17;11.13;;;10.00;;
21034;SDS011;10676;50.848;3.272;2023-09-19T13:44:43;10.80;;;9.90;;
21034;SDS011;10676;50.848;3.272;2023-09-19T13:47:09;11.05;;;10.10;;
21034;SDS011;10676;50.848;3.272;2023-09-19T13:49:38;11.95;;;10.65;;
21034;SDS011;10676;50.848;3.272;2023-09-19T13:52:04;11.32;;;10.35;;
21034;SDS011;10676;50.848;3.272;2023-09-19T13:54:30;12.52;;;11.32;;
21034;SDS011;10676;50.848;3.272;2023-09-19T13:56:55;11.68;;;10.77;;
21034;SDS011;10676;50.848;3.272;2023-09-19T13:59:21;12.00;;;11.00;;
21034;SDS011;10676;50.848;3.272;2023-09-19T14:01:48;12.85;;;11.27;;
21034;SDS011;10676;50.848;3.272;2023-09-19T14:04:15;13.95;;;11.10;;
21034;SDS011;10676;50.848;3.272;2023-09-19T14:06:42;11.90;;;10.27;;
21034;SDS011;10676;50.848;3.272;2023-09-19T14:09:08;12.52;;;10.80;;
21034;SDS011;10676;50.848;3.272;2023-09-19T14:11:35;10.85;;;9.90;;
21034;SDS011;10676;50.848;3.272;2023-09-19T14:14:01;11.13;;;9.95;;
21034;SDS011;10676;50.848;3.272;2023-09-19T14:16:27;13.45;;;10.60;;
21034;SDS011;10676;50.848;3.272;2023-09-19T14:18:56;10.38;;;9.48;;
21034;SDS011;10676;50.848;3.272;2023-09-19T14:21:23;10.13;;;9.15;;
21034;SDS011;10676;50.848;3.272;2023-09-19T14:23:48;10.38;;;9.48;;
21034;SDS011;10676;50.848;3.272;2023-09-19T14:26:14;11.02;;;9.25;;
21034;SDS011;10676;50.848;3.272;2023-09-19T14:28:41;11.00;;;9.90;;
21034;SDS011;10676;50.848;3.272;2023-09-19T14:31:08;11.10;;;10.07;;
21034;SDS011;10676;50.848;3.272;2023-09-19T14:33:35;10.85;;;9.85;;
21034;SDS011;10676;50.848;3.272;2023-09-19T14:36:06;11.05;;;9.88;;
21034;SDS011;10676;50.848;3.272;2023-09-19T14:38:34;11.20;;;10.20;;
21034;SDS011;10676;50.848;3.272;2023-09-19T14:41:04;12.70;;;10.10;;
21034;SDS011;10676;50.848;3.272;2023-09-19T14:43:30;12.20;;;10.90;;
21034;SDS011;10676;50.848;3.272;2023-09-19T14:45:57;11.40;;;10.40;;
21034;SDS011;10676;50.848;3.272;2023-09-19T14:48:36;11.35;;;10.55;;
21034;SDS011;10676;50.848;3.272;2023-09-19T14:51:05;11.48;;;10.38;;
21034;SDS011;10676;50.848;3.272;2023-09-19T14:53:33;11.15;;;9.95;;
21034;SDS011;10676;50.848;3.272;2023-09-19T14:56:03;11.98;;;10.88;;
21034;SDS011;10676;50.848;3.272;2023-09-19T14:58:30;14.20;;;9.98;;
21034;SDS011;10676;50.848;3.272;2023-09-19T15:01:06;11.90;;;10.63;;
21034;SDS011;10676;50.848;3.272;2023-09-19T15:03:32;12.70;;;10.25;;
21034;SDS011;10676;50.848;3.272;2023-09-19T15:06:00;11.45;;;10.25;;
21034;SDS011;10676;50.848;3.272;2023-09-19T15:08:27;12.40;;;10.90;;
21034;SDS011;10676;50.848;3.272;2023-09-19T15:10:52;11.75;;;10.65;;
21034;SDS011;10676;50.848;3.272;2023-09-19T15:13:18;12.30;;;11.27;;
21034;SDS011;10676;50.848;3.272;2023-09-19T15:15:48;13.48;;;11.77;;
21034;SDS011;10676;50.848;3.272;2023-09-19T15:18:13;12.85;;;11.70;;
21034;SDS011;10676;50.848;3.272;2023-09-19T15:20:45;13.25;;;11.90;;
21034;SDS011;10676;50.848;3.272;2023-09-19T15:23:12;13.98;;;11.88;;
21034;SDS011;10676;50.848;3.272;2023-09-19T15:25:38;15.40;;;12.07;;
21034;SDS011;10676;50.848;3.272;2023-09-19T15:28:06;14.30;;;11.82;;
21034;SDS011;10676;50.848;3.272;2023-09-19T15:30:37;12.70;;;11.50;;
21034;SDS011;10676;50.848;3.272;2023-09-19T15:33:03;13.02;;;11.52;;
21034;SDS011;10676;50.848;3.272;2023-09-19T15:35:29;12.70;;;11.63;;
21034;SDS011;10676;50.848;3.272;2023-09-19T15:37:55;16.40;;;12.25;;
21034;SDS011;10676;50.848;3.272;2023-09-19T15:40:21;12.77;;;11.48;;
21034;SDS011;10676;50.848;3.272;2023-09-19T15:42:50;18.38;;;12.30;;
21034;SDS011;10676;50.848;3.272;2023-09-19T15:45:16;13.90;;;12.05;;